Terminal Aerodrome Forecast
Issued by NWS Grand Rapids, MI

Current Version | Previous Version | Text Only | Print | Product List | Glossary On
Versions: 1 2 3 4 5 6 7 8 9 10 11 12 13 14 15 16 17 18 19 20 21 22 23 24 25 26 27 28 29
000
FTUS43 KGRR 051302 AAA
TAFGRR
TAF AMD
KGRR 051302Z 0513/0612 00000KT 1SM -TSRA OVC030CB
     FM051330 23004KT P6SM VCTS BKN035CB
     FM060000 20003KT 6SM BR SKC=

USA.gov is the U.S. government's official web portal to all federal, state and local government web resources and services.